createdAt,value
2023-01-19T00:00:40.780Z,47.52
2023-01-19T00:03:15.740Z,47.48
2023-01-19T00:05:43.119Z,47.49
2023-01-19T00:08:15.692Z,47.52
2023-01-19T00:10:42.450Z,47.46
2023-01-19T00:13:08.779Z,47.48
2023-01-19T00:15:35.127Z,47.43
2023-01-19T00:18:01.447Z,47.44
2023-01-19T00:20:27.783Z,47.49
2023-01-19T00:22:54.112Z,47.45
2023-01-19T00:25:20.427Z,47.50
2023-01-19T00:27:49.327Z,47.34
2023-01-19T00:30:15.951Z,47.42
2023-01-19T00:32:42.279Z,47.53
2023-01-19T00:35:08.599Z,47.45
2023-01-19T00:37:34.935Z,47.49
2023-01-19T00:40:01.270Z,47.38
2023-01-19T00:42:48.168Z,47.48
2023-01-19T00:45:15.151Z,47.50
2023-01-19T00:47:41.497Z,47.43
2023-01-19T00:50:08.308Z,47.42
2023-01-19T00:52:34.640Z,47.32
2023-01-19T00:55:00.963Z,47.49
2023-01-19T00:57:28.623Z,47.62
2023-01-19T00:59:54.951Z,47.36
2023-01-19T01:02:21.415Z,47.40
2023-01-19T01:04:47.849Z,47.37
2023-01-19T01:07:14.207Z,47.34
2023-01-19T01:09:40.525Z,47.47
2023-01-19T01:12:06.835Z,47.25
2023-01-19T01:14:33.163Z,47.43
2023-01-19T01:17:00.514Z,47.51
2023-01-19T01:19:26.882Z,47.49
2023-01-19T01:21:53.210Z,47.51
2023-01-19T01:24:20.739Z,47.55
2023-01-19T01:26:47.070Z,47.54
2023-01-19T01:29:13.380Z,47.38
2023-01-19T01:31:39.772Z,47.56
2023-01-19T01:34:06.176Z,47.56
2023-01-19T01:36:33.405Z,47.49
2023-01-19T01:39:00.100Z,47.58
2023-01-19T01:41:27.449Z,47.37
2023-01-19T01:43:56.492Z,47.41
2023-01-19T01:46:22.922Z,47.50
2023-01-19T01:48:55.376Z,47.47
2023-01-19T01:51:24.667Z,47.42
2023-01-19T01:54:11.252Z,47.52
2023-01-19T01:56:38.658Z,47.42
2023-01-19T01:59:06.195Z,47.53
2023-01-19T02:01:51.351Z,47.55
2023-01-19T02:04:17.791Z,47.43
2023-01-19T02:07:02.556Z,47.66
2023-01-19T02:09:47.329Z,47.52
2023-01-19T02:12:32.600Z,47.51
2023-01-19T02:14:58.939Z,47.54
2023-01-19T02:17:25.266Z,47.62
2023-01-19T02:31:51.049Z,47.61
2023-01-19T02:34:17.902Z,47.65
2023-01-19T02:36:50.892Z,47.63
2023-01-19T02:39:19.508Z,47.59
2023-01-19T02:41:53.349Z,47.51
2023-01-19T02:44:19.691Z,47.68
2023-01-19T02:46:46.064Z,47.55
2023-01-19T02:49:13.548Z,47.47
2023-01-19T02:51:39.884Z,47.56
2023-01-19T02:54:12.150Z,47.62
2023-01-19T02:56:56.938Z,47.59
2023-01-19T02:59:27.927Z,47.56
2023-01-19T03:02:13.309Z,47.62
2023-01-19T03:04:39.655Z,47.67
2023-01-19T03:07:10.233Z,47.53
2023-01-19T03:09:43.841Z,47.53
2023-01-19T03:12:14.982Z,47.55
2023-01-19T03:14:42.445Z,47.66
2023-01-19T03:17:09.270Z,47.60
2023-01-19T03:19:39.609Z,47.55
2023-01-19T03:22:10.378Z,47.60
2023-01-19T03:24:37.963Z,47.70
2023-01-19T03:27:06.296Z,47.62
2023-01-19T03:29:34.724Z,47.38
2023-01-19T03:32:01.742Z,47.45
2023-01-19T03:34:28.477Z,47.52
2023-01-19T03:36:55.381Z,47.41
2023-01-19T03:39:22.382Z,47.58
2023-01-19T03:41:48.847Z,47.70
2023-01-19T03:44:15.164Z,47.51
2023-01-19T03:46:41.542Z,47.45
2023-01-19T03:49:08.370Z,47.65
2023-01-19T03:51:37.645Z,47.55
2023-01-19T03:54:05.070Z,47.59
2023-01-19T03:56:31.521Z,47.56
2023-01-19T03:58:57.844Z,47.64
2023-01-19T04:01:25.003Z,47.56
2023-01-19T04:03:51.526Z,47.55
2023-01-19T04:06:17.922Z,47.53
2023-01-19T04:08:44.282Z,47.59
2023-01-19T04:11:10.611Z,47.55
2023-01-19T04:13:36.928Z,47.42
2023-01-19T04:16:03.597Z,47.54
2023-01-19T04:18:30.173Z,47.49
2023-01-19T04:20:59.649Z,47.62
2023-01-19T04:23:26.183Z,47.58
2023-01-19T04:25:56.941Z,47.56
2023-01-19T04:28:23.279Z,47.60
2023-01-19T04:30:50.561Z,47.50
2023-01-19T04:33:16.929Z,47.55
2023-01-19T04:35:43.810Z,47.59
2023-01-19T04:38:10.167Z,47.60
2023-01-19T04:40:36.478Z,47.56
2023-01-19T04:43:03.182Z,47.58
2023-01-19T04:45:29.848Z,47.55
2023-01-19T04:47:56.193Z,47.67
2023-01-19T04:50:22.538Z,47.50
2023-01-19T04:52:49.024Z,47.67
2023-01-19T04:55:15.345Z,47.38
2023-01-19T04:57:41.681Z,47.52
2023-01-19T05:00:08.279Z,47.44
2023-01-19T05:02:34.644Z,47.61
2023-01-19T05:05:00.983Z,47.56
2023-01-19T05:07:27.333Z,47.52
2023-01-19T05:09:53.885Z,47.55
2023-01-19T05:12:20.341Z,47.35
2023-01-19T05:14:46.657Z,47.50
2023-01-19T05:17:13.005Z,47.31
2023-01-19T05:19:39.322Z,47.38
2023-01-19T05:22:05.659Z,47.45
2023-01-19T05:24:32.000Z,47.41
2023-01-19T05:26:58.334Z,47.43
2023-01-19T05:29:24.654Z,47.39
2023-01-19T05:31:51.042Z,47.45
2023-01-19T05:34:17.404Z,47.48
2023-01-19T05:36:43.756Z,47.50
2023-01-19T05:39:10.076Z,47.53
2023-01-19T05:41:36.416Z,47.48
2023-01-19T05:44:02.755Z,47.41
2023-01-19T05:46:29.104Z,47.47
2023-01-19T05:48:55.546Z,47.47
2023-01-19T05:51:21.966Z,47.48
2023-01-19T05:53:48.342Z,47.49
2023-01-19T05:56:14.723Z,47.37
2023-01-19T05:58:41.070Z,47.44
2023-01-19T06:01:08.351Z,47.16
2023-01-19T06:03:34.903Z,47.36
2023-01-19T06:06:01.281Z,47.72
2023-01-19T06:08:27.621Z,47.57
2023-01-19T06:10:54.005Z,47.57
2023-01-19T06:13:20.360Z,47.63
2023-01-19T06:15:46.807Z,47.63
2023-01-19T06:18:14.722Z,47.95
2023-01-19T06:20:41.073Z,47.89
2023-01-19T06:23:07.407Z,49.08
2023-01-19T06:25:33.770Z,49.50
2023-01-19T06:28:00.233Z,48.85
2023-01-19T06:30:26.994Z,50.02
2023-01-19T06:32:53.413Z,49.57
2023-01-19T06:35:19.749Z,49.47
2023-01-19T06:37:46.136Z,49.49
2023-01-19T06:40:14.345Z,49.79
2023-01-19T06:42:40.894Z,49.88
2023-01-19T06:45:07.488Z,49.76
2023-01-19T06:47:34.413Z,49.98
2023-01-19T06:50:01.733Z,49.87
2023-01-19T06:52:28.506Z,49.45
2023-01-19T06:54:55.531Z,49.38
2023-01-19T06:57:23.303Z,49.35
2023-01-19T06:59:49.621Z,38.12
2023-01-19T07:02:26.421Z,37.55
2023-01-19T07:04:54.868Z,39.95
2023-01-19T07:07:21.227Z,40.81
2023-01-19T07:09:48.092Z,41.93
2023-01-19T07:12:14.487Z,42.06
2023-01-19T07:14:40.933Z,41.75
2023-01-19T07:17:07.480Z,42.24
2023-01-19T07:19:35.214Z,42.67
2023-01-19T07:22:02.285Z,43.24
2023-01-19T07:24:30.473Z,43.89
2023-01-19T07:26:56.811Z,43.99
2023-01-19T07:29:23.150Z,43.63
2023-01-19T07:31:50.260Z,43.13
2023-01-19T07:34:16.880Z,43.23
2023-01-19T07:36:44.017Z,43.51
2023-01-19T07:39:10.352Z,43.75
2023-01-19T07:41:36.709Z,43.71
2023-01-19T07:44:06.211Z,43.61
2023-01-19T07:46:32.756Z,43.40
2023-01-19T07:48:59.085Z,44.44
2023-01-19T07:51:25.918Z,43.18
2023-01-19T07:53:52.263Z,42.57
2023-01-19T07:56:18.596Z,42.99
2023-01-19T07:58:44.940Z,42.62
2023-01-19T08:01:11.867Z,42.59
2023-01-19T08:03:38.278Z,42.75
2023-01-19T08:06:05.116Z,42.84
2023-01-19T08:08:32.117Z,42.77
2023-01-19T08:10:58.436Z,43.30
2023-01-19T08:13:24.963Z,43.41
2023-01-19T08:15:51.735Z,40.76
2023-01-19T08:18:18.242Z,41.66
2023-01-19T08:20:44.552Z,41.98
2023-01-19T08:23:10.915Z,42.29
2023-01-19T08:25:42.170Z,42.35
2023-01-19T08:28:08.489Z,42.25
2023-01-19T08:30:34.862Z,42.00
2023-01-19T08:33:04.544Z,42.80
2023-01-19T08:35:34.914Z,42.68
2023-01-19T08:38:01.692Z,43.02
2023-01-19T08:40:29.055Z,42.95
2023-01-19T08:43:07.925Z,43.65
2023-01-19T08:45:37.436Z,43.58
2023-01-19T08:48:04.284Z,43.68
2023-01-19T08:50:30.862Z,43.75
2023-01-19T08:52:58.041Z,43.68
2023-01-19T08:55:24.616Z,43.78
2023-01-19T08:57:52.394Z,44.02
2023-01-19T09:00:19.253Z,44.08
2023-01-19T09:02:45.619Z,44.20
2023-01-19T09:05:11.964Z,44.22
2023-01-19T09:07:38.285Z,44.27
2023-01-19T09:10:04.928Z,44.29
2023-01-19T09:12:31.318Z,44.43
2023-01-19T09:14:57.663Z,44.33
2023-01-19T09:17:24.069Z,44.39
2023-01-19T09:19:50.396Z,44.28
2023-01-19T09:22:16.715Z,44.17
2023-01-19T09:24:43.057Z,43.82
2023-01-19T09:27:09.370Z,43.64
2023-01-19T09:29:36.462Z,43.86
2023-01-19T09:32:02.798Z,43.64
2023-01-19T09:34:29.134Z,43.84
2023-01-19T09:36:55.510Z,43.48
2023-01-19T09:39:21.870Z,43.81
2023-01-19T09:41:53.380Z,43.32
2023-01-19T09:44:28.927Z,43.65
2023-01-19T09:46:55.272Z,43.56
2023-01-19T09:49:25.592Z,43.87
2023-01-19T09:51:51.907Z,44.38
2023-01-19T09:54:18.819Z,44.71
2023-01-19T09:56:45.559Z,43.91
2023-01-19T09:59:15.228Z,43.29
2023-01-19T10:01:54.315Z,40.76
2023-01-19T10:04:26.384Z,40.95
2023-01-19T10:06:53.756Z,40.75
2023-01-19T10:09:22.739Z,38.69
2023-01-19T10:11:53.000Z,39.60
2023-01-19T10:14:25.904Z,39.93
2023-01-19T10:17:06.247Z,40.63
2023-01-19T10:19:33.676Z,41.28
2023-01-19T10:22:00.384Z,41.62
2023-01-19T10:24:33.065Z,41.88
2023-01-19T10:26:59.471Z,41.98
2023-01-19T10:29:27.440Z,42.20
2023-01-19T10:31:57.800Z,42.13
2023-01-19T10:34:24.154Z,42.38
2023-01-19T10:36:50.650Z,42.11
2023-01-19T10:39:17.183Z,42.43
2023-01-19T10:41:44.579Z,42.81
2023-01-19T10:44:11.043Z,42.90
2023-01-19T10:46:37.341Z,43.08
2023-01-19T10:49:03.687Z,43.27
2023-01-19T10:51:30.133Z,43.44
2023-01-19T10:53:57.445Z,43.88
2023-01-19T10:56:24.961Z,43.69
2023-01-19T10:58:51.424Z,43.42
2023-01-19T11:01:18.883Z,43.56
2023-01-19T11:03:45.486Z,43.81
2023-01-19T11:06:17.611Z,44.22
2023-01-19T11:08:44.372Z,44.45
2023-01-19T11:11:12.363Z,44.57
2023-01-19T11:13:39.107Z,44.97
2023-01-19T11:16:06.571Z,45.66
2023-01-19T11:18:33.865Z,45.68
2023-01-19T11:21:09.641Z,45.94
2023-01-19T11:23:42.017Z,45.83
2023-01-19T11:26:08.868Z,45.85
2023-01-19T11:28:36.515Z,46.28
2023-01-19T11:31:16.080Z,46.32
2023-01-19T11:33:50.725Z,46.32
2023-01-19T11:36:21.042Z,41.55
2023-01-19T11:38:50.320Z,42.11
2023-01-19T11:41:17.955Z,42.78
2023-01-19T11:43:49.537Z,44.88
2023-01-19T11:46:15.996Z,45.43
2023-01-19T11:48:47.419Z,45.65
2023-01-19T11:51:14.516Z,45.29
2023-01-19T11:53:40.863Z,45.17
2023-01-19T11:56:08.382Z,45.29
2023-01-19T11:58:37.279Z,45.28
2023-01-19T12:01:09.380Z,45.78
2023-01-19T12:03:46.684Z,45.54
2023-01-19T12:06:18.234Z,45.17
2023-01-19T12:08:49.005Z,44.64
2023-01-19T12:11:17.490Z,44.42
2023-01-19T12:13:44.067Z,45.31
2023-01-19T12:16:23.188Z,45.10
2023-01-19T12:18:54.543Z,44.42
2023-01-19T12:21:20.912Z,44.76
2023-01-19T12:23:49.914Z,45.69
2023-01-19T12:26:16.174Z,45.63
2023-01-19T12:28:43.210Z,46.03
2023-01-19T12:31:09.659Z,46.61
2023-01-19T12:33:39.219Z,46.22
2023-01-19T12:36:06.671Z,46.21
2023-01-19T12:38:37.736Z,46.44
2023-01-19T12:41:19.524Z,46.53
2023-01-19T12:43:46.175Z,46.68
2023-01-19T12:46:19.449Z,46.36
2023-01-19T12:48:45.780Z,46.79
2023-01-19T12:51:25.032Z,46.12
2023-01-19T12:53:52.167Z,45.85
2023-01-19T12:56:18.492Z,45.70
2023-01-19T12:58:49.064Z,45.57
2023-01-19T13:01:16.490Z,45.60
2023-01-19T13:03:44.183Z,45.59
2023-01-19T13:06:10.578Z,45.13
2023-01-19T13:08:56.449Z,45.12
2023-01-19T13:11:24.973Z,45.30
2023-01-19T13:14:16.110Z,44.89
2023-01-19T13:16:42.354Z,44.57
2023-01-19T13:19:12.762Z,45.06
2023-01-19T13:21:39.880Z,44.71
2023-01-19T13:24:06.893Z,45.07
2023-01-19T13:26:33.940Z,44.85
2023-01-19T13:29:23.657Z,45.10
2023-01-19T13:31:53.863Z,44.93
2023-01-19T13:34:21.178Z,44.81
2023-01-19T13:36:49.867Z,44.63
2023-01-19T13:39:21.624Z,44.86
2023-01-19T13:41:49.016Z,45.24
2023-01-19T13:44:18.840Z,45.39
2023-01-19T13:46:45.634Z,45.50
2023-01-19T13:49:15.066Z,45.19
2023-01-19T13:51:41.415Z,45.29
2023-01-19T13:54:13.110Z,45.42
2023-01-19T13:56:41.846Z,45.08
2023-01-19T13:59:11.597Z,44.97
2023-01-19T14:01:38.651Z,45.04
2023-01-19T14:04:05.334Z,44.74
2023-01-19T14:06:38.686Z,45.00
2023-01-19T14:09:05.714Z,44.94
2023-01-19T14:11:32.047Z,45.17
2023-01-19T14:13:58.362Z,44.80
2023-01-19T14:16:25.106Z,44.73
2023-01-19T14:19:00.817Z,45.17
2023-01-19T14:21:36.343Z,45.14
2023-01-19T14:24:06.764Z,45.14
2023-01-19T14:26:43.486Z,44.83
2023-01-19T14:29:09.761Z,44.53
2023-01-19T14:31:42.759Z,45.18
2023-01-19T14:34:28.495Z,44.92
2023-01-19T14:36:54.821Z,44.97
2023-01-19T14:39:23.330Z,44.94
2023-01-19T14:41:52.193Z,44.77
2023-01-19T14:44:26.335Z,44.81
2023-01-19T14:46:53.507Z,45.32
2023-01-19T14:49:20.782Z,45.40
2023-01-19T14:51:47.107Z,45.32
2023-01-19T14:54:17.217Z,45.29
2023-01-19T14:56:43.595Z,44.87
2023-01-19T14:59:10.584Z,45.23
2023-01-19T15:01:37.000Z,45.04
2023-01-19T15:04:03.489Z,44.99
2023-01-19T15:06:29.823Z,45.02
2023-01-19T15:08:56.213Z,45.05
2023-01-19T15:11:23.497Z,44.99
2023-01-19T15:13:49.942Z,44.84
2023-01-19T15:16:16.441Z,45.20
2023-01-19T15:18:42.793Z,45.00
2023-01-19T15:21:13.833Z,44.78
2023-01-19T15:23:40.302Z,44.55
2023-01-19T15:26:06.635Z,44.55
2023-01-19T15:28:32.997Z,45.25
2023-01-19T15:30:59.350Z,45.41
2023-01-19T15:33:27.227Z,45.24
2023-01-19T15:35:53.585Z,44.98
2023-01-19T15:38:19.950Z,44.17
2023-01-19T15:40:47.992Z,42.60
2023-01-19T15:43:17.446Z,41.88
2023-01-19T15:46:00.663Z,42.43
2023-01-19T15:48:27.038Z,42.40
2023-01-19T15:50:53.487Z,43.33
2023-01-19T15:53:20.591Z,43.53
2023-01-19T15:55:50.820Z,43.54
2023-01-19T15:58:18.485Z,43.76
2023-01-19T16:00:45.217Z,44.24
2023-01-19T16:03:11.852Z,44.20
2023-01-19T16:05:43.383Z,44.43
2023-01-19T16:08:11.055Z,44.87
2023-01-19T16:10:37.641Z,45.07
2023-01-19T16:13:04.091Z,44.87
2023-01-19T16:15:30.457Z,44.75
2023-01-19T16:17:56.822Z,44.69
2023-01-19T16:20:23.163Z,44.97
2023-01-19T16:22:49.509Z,44.88
2023-01-19T16:25:15.850Z,44.95
2023-01-19T16:27:42.283Z,44.81
2023-01-19T16:30:10.607Z,44.67
2023-01-19T16:32:38.279Z,44.80
2023-01-19T16:35:04.691Z,44.74
2023-01-19T16:37:31.026Z,44.93
2023-01-19T16:39:57.420Z,44.96
2023-01-19T16:42:23.741Z,44.79
2023-01-19T16:44:50.047Z,44.59
2023-01-19T16:47:16.364Z,44.90
2023-01-19T16:49:42.682Z,45.01
2023-01-19T16:52:09.346Z,45.27
2023-01-19T16:54:36.420Z,45.47
2023-01-19T16:57:03.767Z,45.64
2023-01-19T16:59:30.120Z,45.45
2023-01-19T17:01:57.048Z,45.23
2023-01-19T17:04:23.527Z,45.14
2023-01-19T17:06:52.770Z,44.94
2023-01-19T17:09:19.125Z,44.99
2023-01-19T17:11:45.522Z,45.39
2023-01-19T17:14:12.778Z,45.34
2023-01-19T17:16:39.160Z,45.41
2023-01-19T17:19:05.626Z,45.36
2023-01-19T17:21:31.943Z,45.43
2023-01-19T17:23:58.361Z,45.39
2023-01-19T17:26:33.824Z,45.36
2023-01-19T17:29:00.587Z,45.65
2023-01-19T17:31:27.031Z,46.08
2023-01-19T17:33:53.428Z,46.17
2023-01-19T17:36:22.262Z,46.05
2023-01-19T17:38:48.919Z,46.13
2023-01-19T17:41:18.154Z,46.18
2023-01-19T17:43:45.401Z,46.12
2023-01-19T17:46:11.780Z,46.36
2023-01-19T17:48:38.124Z,46.24
2023-01-19T17:51:05.563Z,46.13
2023-01-19T17:53:32.220Z,46.24
2023-01-19T17:56:05.189Z,46.59
2023-01-19T17:58:31.542Z,46.79
2023-01-19T18:00:58.170Z,46.72
2023-01-19T18:03:24.508Z,46.49
2023-01-19T18:05:54.028Z,44.05
2023-01-19T18:08:20.406Z,43.40
2023-01-19T18:10:54.119Z,44.52
2023-01-19T18:13:20.437Z,45.73
2023-01-19T18:15:46.816Z,45.89
2023-01-19T18:18:13.165Z,45.91
2023-01-19T18:20:40.007Z,45.68
2023-01-19T18:23:06.636Z,46.37
2023-01-19T18:25:32.960Z,46.81
2023-01-19T18:27:59.350Z,46.92
2023-01-19T18:30:25.730Z,47.02
2023-01-19T18:32:52.167Z,46.97
2023-01-19T18:35:18.501Z,47.00
2023-01-19T18:37:44.816Z,47.31
2023-01-19T18:40:11.629Z,45.09
2023-01-19T18:42:53.152Z,38.27
2023-01-19T18:45:19.534Z,39.86
2023-01-19T18:47:45.857Z,39.98
2023-01-19T18:50:14.140Z,40.63
2023-01-19T18:52:40.674Z,40.51
2023-01-19T18:55:07.093Z,42.91
2023-01-19T18:57:34.292Z,42.21
2023-01-19T19:00:00.608Z,40.41
2023-01-19T19:02:27.007Z,40.79
2023-01-19T19:04:53.349Z,40.85
2023-01-19T19:07:19.675Z,41.02
2023-01-19T19:09:46.024Z,41.00
2023-01-19T19:12:12.510Z,41.28
2023-01-19T19:14:38.834Z,41.43
2023-01-19T19:17:05.166Z,41.67
2023-01-19T19:19:31.491Z,41.88
2023-01-19T19:21:57.848Z,42.59
2023-01-19T19:24:24.500Z,42.64
2023-01-19T19:26:50.838Z,43.14
2023-01-19T19:29:17.257Z,43.05
2023-01-19T19:31:43.744Z,43.42
2023-01-19T19:34:12.319Z,43.62
2023-01-19T19:36:38.768Z,43.68
2023-01-19T19:39:05.089Z,43.93
2023-01-19T19:41:32.340Z,43.93
2023-01-19T19:43:58.688Z,44.13
2023-01-19T19:46:25.192Z,44.13
2023-01-19T19:48:51.571Z,44.27
2023-01-19T19:51:25.417Z,44.40
2023-01-19T19:53:52.462Z,44.34
2023-01-19T19:56:20.926Z,44.49
2023-01-19T19:58:47.314Z,44.44
2023-01-19T20:01:14.317Z,44.30
2023-01-19T20:03:40.919Z,44.78
2023-01-19T20:06:11.310Z,44.49
2023-01-19T20:08:37.707Z,44.65
2023-01-19T20:11:10.835Z,44.87
2023-01-19T20:13:38.381Z,44.94
2023-01-19T20:16:05.163Z,44.83
2023-01-19T20:18:31.552Z,44.21
2023-01-19T20:20:58.269Z,45.33
2023-01-19T20:23:24.592Z,45.45
2023-01-19T20:25:51.033Z,45.39
2023-01-19T20:28:17.418Z,45.77
2023-01-19T20:30:43.782Z,46.13
2023-01-19T20:33:10.111Z,46.22
2023-01-19T20:35:36.422Z,45.84
2023-01-19T20:38:02.753Z,46.13
2023-01-19T20:40:29.086Z,45.81
2023-01-19T20:42:55.416Z,46.08
2023-01-19T20:45:21.806Z,46.24
2023-01-19T20:47:48.161Z,46.02
2023-01-19T20:50:14.504Z,46.44
2023-01-19T20:52:40.833Z,46.53
2023-01-19T20:55:08.750Z,46.56
2023-01-19T20:57:35.090Z,46.39
2023-01-19T21:00:01.401Z,46.73
2023-01-19T21:02:28.611Z,46.92
2023-01-19T21:04:55.020Z,46.86
2023-01-19T21:07:21.406Z,46.84
2023-01-19T21:09:47.755Z,47.13
2023-01-19T21:12:15.934Z,46.99
2023-01-19T21:14:43.787Z,47.13
2023-01-19T21:17:10.133Z,46.70
2023-01-19T21:19:36.470Z,47.35
2023-01-19T21:22:02.816Z,47.10
2023-01-19T21:24:29.472Z,46.98
2023-01-19T21:26:55.813Z,47.22
2023-01-19T21:29:22.151Z,47.35
2023-01-19T21:31:48.534Z,47.23
2023-01-19T21:34:14.933Z,47.21
2023-01-19T21:36:41.356Z,47.52
2023-01-19T21:39:08.098Z,47.50
2023-01-19T21:41:35.790Z,47.67
2023-01-19T21:44:02.250Z,47.54
2023-01-19T21:46:32.954Z,47.56
2023-01-19T21:49:00.218Z,47.19
2023-01-19T21:51:26.881Z,47.28
2023-01-19T21:53:55.898Z,47.16
2023-01-19T21:56:22.919Z,47.56
2023-01-19T21:58:49.268Z,47.69
2023-01-19T22:01:15.701Z,47.62
2023-01-19T22:03:42.163Z,47.43
2023-01-19T22:06:12.559Z,47.25
2023-01-19T22:08:38.896Z,47.43
2023-01-19T22:11:11.743Z,47.64
2023-01-19T22:13:41.041Z,47.71
2023-01-19T22:16:11.914Z,47.61
2023-01-19T22:18:38.527Z,47.93
2023-01-19T22:21:08.743Z,47.57
2023-01-19T22:23:35.116Z,47.50
2023-01-19T22:26:01.451Z,47.71
2023-01-19T22:28:27.763Z,47.72
2023-01-19T22:30:54.181Z,47.63
2023-01-19T22:33:20.575Z,47.86
2023-01-19T22:35:46.890Z,47.73
2023-01-19T22:38:13.198Z,47.72
2023-01-19T22:40:39.533Z,47.88
2023-01-19T22:43:05.868Z,47.82
2023-01-19T22:45:32.189Z,47.80
2023-01-19T22:47:58.516Z,47.86
2023-01-19T22:50:24.843Z,47.83
2023-01-19T22:52:54.562Z,47.90
2023-01-19T22:55:20.879Z,47.89
2023-01-19T22:57:47.207Z,48.00
2023-01-19T23:00:13.797Z,47.90
2023-01-19T23:02:40.118Z,48.02
2023-01-19T23:05:06.522Z,48.19
2023-01-19T23:07:32.856Z,48.01
2023-01-19T23:09:59.189Z,48.07
2023-01-19T23:12:25.517Z,48.00
2023-01-19T23:14:51.868Z,47.94
2023-01-19T23:17:18.187Z,47.93
2023-01-19T23:19:44.506Z,48.00
2023-01-19T23:22:10.825Z,47.85
2023-01-19T23:24:37.161Z,47.83
2023-01-19T23:27:03.495Z,47.83
2023-01-19T23:29:29.825Z,47.86
2023-01-19T23:31:56.890Z,47.85
2023-01-19T23:34:23.205Z,47.74
2023-01-19T23:36:49.529Z,47.81
2023-01-19T23:39:19.578Z,47.79
2023-01-19T23:41:45.964Z,47.86
2023-01-19T23:44:12.276Z,47.69
2023-01-19T23:46:38.598Z,47.64
2023-01-19T23:49:04.947Z,47.75
2023-01-19T23:51:31.511Z,47.68
2023-01-19T23:53:57.954Z,47.78
2023-01-19T23:56:25.017Z,47.72
2023-01-19T23:58:54.231Z,47.68
